Time;durP1;ratioP1;P1;durP2;ratioP2;P2;SDS_P1;SDS_P2;PMS_P1;PMS_P2;Temp;Humidity;BMP_temperature;BMP_pressure;BME280_temperature;BME280_humidity;BME280_pressure;Samples;Min_cycle;Max_cycle;Signal;HPM_P1;HPM_P2
2022/05/12 00:01:13;;;;;;;7.60;4.00;;;;;;;15.27;81.92;99752.25;5103777;28;20881;-63
2022/05/12 00:03:40;;;;;;;7.50;4.60;;;;;;;15.32;81.93;99757.94;5117394;28;20477;-63
2022/05/12 00:06:08;;;;;;;7.13;4.67;;;;;;;15.32;81.81;99765.19;5124335;28;20481;-63
2022/05/12 00:08:35;;;;;;;13.43;6.10;;;;;;;15.39;81.05;99775.03;5123567;28;21092;-63
2022/05/12 00:11:02;;;;;;;11.93;4.53;;;;;;;15.38;81.33;99783.28;5107798;28;20489;-63
2022/05/12 00:13:28;;;;;;;6.33;4.20;;;;;;;15.29;81.55;99782.53;5103970;28;20466;-63
2022/05/12 00:15:58;;;;;;;7.27;4.37;;;;;;;15.19;81.63;99781.97;5115498;28;21000;-63
2022/05/12 00:18:25;;;;;;;6.80;4.50;;;;;;;15.35;80.56;99781.81;5124053;28;20499;-63
2022/05/12 00:20:52;;;;;;;8.87;3.73;;;;;;;15.24;81.08;99788.50;5105671;28;20938;-63
2022/05/12 00:23:20;;;;;;;11.63;4.03;;;;;;;15.30;80.23;99791.47;5120390;28;20826;-63
2022/05/12 00:25:48;;;;;;;10.43;4.10;;;;;;;15.31;81.00;99794.00;5123949;28;20477;-62
2022/05/12 00:28:16;;;;;;;4.47;3.80;;;;;;;15.32;81.00;99806.41;5112736;28;20439;-62
2022/05/12 00:30:43;;;;;;;6.77;3.30;;;;;;;15.38;80.83;99802.16;5118015;28;20454;-62
2022/05/12 00:33:12;;;;;;;6.60;4.13;;;;;;;15.38;80.70;99812.94;5123962;28;20510;-62
2022/05/12 00:35:40;;;;;;;8.30;4.63;;;;;;;15.32;81.49;99809.13;5122985;28;20458;-62
2022/05/12 00:38:07;;;;;;;6.20;4.40;;;;;;;15.35;81.14;99811.44;5122789;28;20965;-63
2022/05/12 00:40:33;;;;;;;12.10;4.40;;;;;;;15.27;80.82;99816.06;5122807;28;20470;-62
2022/05/12 00:43:01;;;;;;;5.87;4.20;;;;;;;15.22;81.24;99822.00;5122909;28;20442;-62
2022/05/12 00:45:30;;;;;;;8.93;3.50;;;;;;;15.30;81.38;99819.25;5122658;28;20544;-62
2022/05/12 00:47:57;;;;;;;6.60;3.97;;;;;;;15.11;81.83;99822.44;5122649;28;20466;-62
2022/05/12 00:50:28;;;;;;;7.27;4.10;;;;;;;15.04;81.27;99831.22;5122689;28;20859;-62
2022/05/12 00:52:55;;;;;;;6.90;3.97;;;;;;;15.31;80.75;99830.84;5123368;28;20450;-62
2022/05/12 00:55:26;;;;;;;4.90;4.00;;;;;;;15.13;82.00;99853.53;5123786;28;20461;-62
2022/05/12 00:57:55;;;;;;;7.07;4.90;;;;;;;15.24;81.86;99850.44;5122921;28;20441;-62
2022/05/12 01:00:23;;;;;;;8.37;4.97;;;;;;;15.16;82.03;99860.44;5119692;28;20513;-62
2022/05/12 01:02:51;;;;;;;7.77;5.27;;;;;;;15.18;82.35;99861.09;5122778;28;20438;-62
2022/05/12 01:05:19;;;;;;;7.10;4.90;;;;;;;15.22;82.22;99878.53;5123376;28;20938;-63
2022/05/12 01:07:47;;;;;;;8.67;5.70;;;;;;;15.29;82.22;99886.75;5121905;28;20485;-63
2022/05/12 01:10:15;;;;;;;8.47;4.63;;;;;;;15.22;82.51;99889.31;5122513;28;20438;-62
2022/05/12 01:12:45;;;;;;;6.70;4.80;;;;;;;15.17;81.80;99881.78;5123423;28;20433;-62
2022/05/12 01:15:13;;;;;;;10.00;5.57;;;;;;;15.16;82.06;99900.81;5118035;28;20446;-62
2022/05/12 01:17:39;;;;;;;6.30;4.47;;;;;;;15.04;81.29;99903.09;5122043;28;20503;-62
2022/05/12 01:20:07;;;;;;;9.17;4.83;;;;;;;15.16;80.90;99908.91;5123154;28;20430;-62
2022/05/12 01:22:41;;;;;;;9.57;4.70;;;;;;;14.93;80.08;99935.78;5122336;28;20529;-62
2022/05/12 01:25:11;;;;;;;5.40;3.43;;;;;;;14.85;78.79;99956.34;5123276;28;20442;-62
2022/05/12 01:27:38;;;;;;;4.63;3.10;;;;;;;14.71;76.08;99937.41;5121473;28;20539;-62
2022/05/12 01:30:05;;;;;;;3.23;2.60;;;;;;;14.78;76.10;99946.47;5122686;28;20438;-62
2022/05/12 01:32:32;;;;;;;4.97;2.60;;;;;;;14.84;74.97;99954.69;5122233;28;20500;-62
2022/05/12 01:34:59;;;;;;;4.70;2.20;;;;;;;14.71;75.27;99972.41;5122547;28;20446;-62
2022/05/12 01:37:26;;;;;;;2.60;1.90;;;;;;;14.72;73.99;99974.06;5121112;28;21098;-63
2022/05/12 01:39:53;;;;;;;1.90;1.50;;;;;;;14.63;72.09;99987.56;5122178;28;20516;-62
2022/05/12 01:42:21;;;;;;;5.57;1.80;;;;;;;14.23;70.67;100001.91;5122221;28;20526;-62
2022/05/12 01:44:48;;;;;;;4.03;2.00;;;;;;;14.25;70.60;100013.31;5121791;28;20522;-62
2022/05/12 01:47:15;;;;;;;3.87;2.17;;;;;;;14.00;68.17;100017.91;5121856;28;20478;-62
2022/05/12 01:49:43;;;;;;;3.43;1.53;;;;;;;13.84;68.90;100016.88;5122688;28;20435;-62
2022/05/12 01:52:11;;;;;;;6.13;1.90;;;;;;;13.65;69.12;100030.66;5121742;28;20935;-62
2022/05/12 01:54:37;;;;;;;4.17;1.80;;;;;;;13.53;69.25;100030.94;5122319;28;20438;-62
2022/05/12 01:57:06;;;;;;;6.70;1.60;;;;;;;13.44;68.11;100031.94;5120766;28;20480;-62
2022/05/12 01:59:34;;;;;;;1.90;1.30;;;;;;;13.53;68.27;100039.00;5122767;28;20434;-62
2022/05/12 02:02:01;;;;;;;8.13;1.70;;;;;;;13.47;68.20;100045.06;5121418;28;20489;-62
2022/05/12 02:04:27;;;;;;;3.20;1.37;;;;;;;13.48;68.31;100046.72;5122579;28;20488;-63
2022/05/12 02:06:54;;;;;;;5.20;1.87;;;;;;;13.01;70.12;100060.63;5121666;28;20894;-62
2022/05/12 02:09:20;;;;;;;8.60;1.53;;;;;;;13.00;69.83;100070.53;5114482;28;20476;-62
2022/05/12 02:11:47;;;;;;;4.80;1.87;;;;;;;13.30;68.86;100072.84;5121323;28;20503;-62
2022/05/12 02:14:14;;;;;;;2.80;1.60;;;;;;;13.07;69.27;100067.19;5122013;28;20533;-62
2022/05/12 02:16:43;;;;;;;4.57;1.70;;;;;;;12.89;69.17;100084.22;5120909;28;20470;-64
2022/05/12 02:19:11;;;;;;;7.60;1.40;;;;;;;13.09;68.99;100078.59;5121770;28;20450;-64
2022/05/12 02:21:38;;;;;;;3.40;1.60;;;;;;;12.96;69.48;100082.56;5120638;28;20486;-63
2022/05/12 02:24:05;;;;;;;3.57;1.73;;;;;;;12.95;69.85;100088.97;5120749;28;20460;-64
2022/05/12 02:26:34;;;;;;;3.77;1.50;;;;;;;12.89;70.23;100100.31;5121754;28;20502;-63
2022/05/12 02:29:01;;;;;;;4.63;1.53;;;;;;;12.90;70.59;100102.00;5117737;28;20437;-63
2022/05/12 02:31:27;;;;;;;4.20;1.60;;;;;;;12.67;71.45;100108.91;5120812;28;20482;-63
2022/05/12 02:33:55;;;;;;;6.33;1.77;;;;;;;12.66;70.97;100110.75;5121354;28;20454;-63
2022/05/12 02:36:22;;;;;;;4.57;1.67;;;;;;;12.63;70.34;100114.56;5120570;28;20482;-61
2022/05/12 02:38:49;;;;;;;1.53;0.80;;;;;;;12.43;70.85;100124.66;5119677;28;20461;-63
2022/05/12 02:41:16;;;;;;;3.47;1.10;;;;;;;12.52;70.87;100127.44;5120806;28;20952;-63
2022/05/12 02:43:43;;;;;;;2.03;0.80;;;;;;;12.61;69.87;100137.19;5121226;28;20932;-64
2022/05/12 02:46:11;;;;;;;2.73;1.30;;;;;;;12.49;70.49;100136.59;5120691;28;20478;-65
2022/05/12 02:48:40;;;;;;;2.43;1.20;;;;;;;12.41;70.49;100137.41;5121307;28;20470;-64
2022/05/12 02:51:09;;;;;;;4.40;1.63;;;;;;;12.44;70.17;100138.91;5121191;28;20470;-64
2022/05/12 02:53:36;;;;;;;2.00;1.20;;;;;;;12.36;70.65;100142.38;5121346;28;20442;-65
2022/05/12 02:56:04;;;;;;;2.47;1.50;;;;;;;12.41;71.64;100158.84;5120898;28;20892;-65
2022/05/12 02:58:31;;;;;;;2.80;1.20;;;;;;;12.43;71.12;100143.44;5120980;28;20495;-64
2022/05/12 03:00:58;;;;;;;3.33;1.10;;;;;;;12.35;70.46;100154.09;5120581;28;20477;-64
2022/05/12 03:03:25;;;;;;;2.90;1.30;;;;;;;12.32;70.54;100151.72;5121188;28;20460;-64
2022/05/12 03:05:52;;;;;;;4.00;1.40;;;;;;;12.28;71.11;100155.72;5120551;28;20473;-64
2022/05/12 03:08:21;;;;;;;7.87;1.53;;;;;;;12.11;72.50;100164.59;5119870;28;20482;-64
2022/05/12 03:10:49;;;;;;;5.57;1.50;;;;;;;12.26;71.94;100173.78;5121589;28;20466;-63
2022/05/12 03:13:15;;;;;;;3.57;1.07;;;;;;;12.03;72.14;100174.25;5121575;28;20526;-64
2022/05/12 03:15:42;;;;;;;5.50;1.40;;;;;;;11.92;72.97;100177.13;5120241;28;20526;-64
2022/05/12 03:18:09;;;;;;;1.67;0.90;;;;;;;11.83;72.87;100180.69;5109938;28;20428;-64
2022/05/12 03:20:35;;;;;;;2.43;1.10;;;;;;;11.91;72.84;100193.34;5109312;28;20524;-63
2022/05/12 03:23:02;;;;;;;6.40;1.40;;;;;;;11.93;72.06;100202.09;5121151;28;20905;-64
2022/05/12 03:25:31;;;;;;;3.43;1.40;;;;;;;11.80;72.50;100197.06;5120716;28;20458;-63
2022/05/12 03:27:59;;;;;;;3.13;1.77;;;;;;;11.89;72.53;100193.50;5112226;28;20471;-64
2022/05/12 03:30:26;;;;;;;3.60;1.87;;;;;;;11.87;72.20;100193.63;5113434;28;20533;-64
2022/05/12 03:32:53;;;;;;;4.30;1.27;;;;;;;11.81;72.19;100198.75;5121177;28;20438;-62
2022/05/12 03:35:20;;;;;;;4.07;1.20;;;;;;;11.83;72.75;100196.75;5109526;28;20439;-62
2022/05/12 03:37:46;;;;;;;1.10;0.80;;;;;;;11.73;72.48;100204.84;5107095;28;20595;-64
2022/05/12 03:40:17;;;;;;;2.47;1.20;;;;;;;11.82;72.15;100208.44;5120353;28;20474;-63
2022/05/12 03:42:45;;;;;;;3.73;1.13;;;;;;;11.94;71.79;100209.97;5114473;28;20452;-63
2022/05/12 03:45:11;;;;;;;2.23;1.23;;;;;;;12.17;71.40;100231.84;5102541;28;20520;-63
2022/05/12 03:47:39;;;;;;;1.87;1.10;;;;;;;12.75;68.88;100229.69;5105069;28;20497;-63
2022/05/12 03:50:09;;;;;;;2.00;1.00;;;;;;;13.15;66.93;100229.13;5121412;28;20450;-62
2022/05/12 03:52:36;;;;;;;6.13;1.20;;;;;;;13.63;65.12;100240.34;5118340;28;20866;-62
2022/05/12 03:55:04;;;;;;;4.00;1.13;;;;;;;13.81;64.35;100234.03;5110677;28;20478;-62
2022/05/12 03:57:31;;;;;;;1.87;0.90;;;;;;;13.96;63.44;100235.09;5100513;28;20546;-62
2022/05/12 04:00:00;;;;;;;1.53;0.97;;;;;;;14.37;62.43;100248.63;5117421;28;20465;-62
2022/05/12 04:02:27;;;;;;;4.87;1.40;;;;;;;14.62;61.63;100246.88;5109866;28;20478;-65
2022/05/12 04:04:53;;;;;;;3.37;1.20;;;;;;;14.49;61.59;100251.84;5103467;28;20537;-62
2022/05/12 04:07:22;;;;;;;2.10;0.93;;;;;;;14.46;61.33;100247.66;5080178;28;20518;-63
2022/05/12 04:09:50;;;;;;;4.33;1.70;;;;;;;15.37;59.30;100256.56;5092133;28;20434;-62
2022/05/12 04:12:18;;;;;;;6.37;1.20;;;;;;;15.60;57.99;100262.06;5101467;28;20959;-62
2022/05/12 04:14:45;;;;;;;2.80;1.20;;;;;;;16.39;55.79;100272.03;5099956;28;20493;-62
2022/05/12 04:17:15;;;;;;;5.40;1.40;;;;;;;16.22;55.96;100275.84;5100722;28;20462;-63
2022/05/12 04:19:42;;;;;;;2.13;1.13;;;;;;;15.55;57.43;100275.19;5105108;28;21017;-63
2022/05/12 04:22:09;;;;;;;1.60;1.50;;;;;;;15.83;56.58;100277.50;5111377;28;20471;-64
2022/05/12 04:24:36;;;;;;;4.50;1.13;;;;;;;16.11;56.08;100285.16;5102498;28;20486;-64
2022/05/12 04:27:03;;;;;;;2.77;0.90;;;;;;;16.85;53.60;100274.75;5105949;28;20520;-65
2022/05/12 04:29:29;;;;;;;2.93;1.10;;;;;;;16.81;54.17;100289.63;5102973;28;20483;-65
2022/05/12 04:31:56;;;;;;;4.63;1.03;;;;;;;17.19;52.71;100283.44;5105234;28;21016;-65
2022/05/12 04:37:08;;;;;;;3.60;1.20;;;;;;;17.29;51.98;100295.66;5120434;28;20481;-63
2022/05/12 04:39:35;;;;;;;3.80;0.90;;;;;;;17.18;52.43;100301.50;5113341;28;20521;-64
2022/05/12 04:42:02;;;;;;;2.93;1.20;;;;;;;16.67;53.87;100299.34;5114136;28;20517;-63
2022/05/12 04:44:28;;;;;;;5.53;1.10;;;;;;;16.32;54.31;100304.28;5102793;28;20470;-64
2022/05/12 04:46:55;;;;;;;4.30;1.30;;;;;;;16.97;53.04;100301.34;5100186;28;20546;-63
2022/05/12 04:49:22;;;;;;;3.43;1.47;;;;;;;17.16;52.33;100311.66;5094049;28;20455;-63
2022/05/12 04:51:50;;;;;;;3.40;1.07;;;;;;;16.97;53.06;100302.19;5101615;28;20549;-62
2022/05/12 04:54:17;;;;;;;2.50;0.93;;;;;;;15.51;56.91;100305.38;5113979;28;20963;-62
2022/05/12 04:56:44;;;;;;;2.50;1.03;;;;;;;15.30;58.54;100320.22;5121867;28;20717;-62
2022/05/12 04:59:11;;;;;;;3.67;1.70;;;;;;;16.29;55.49;100315.41;5119764;28;20431;-63
2022/05/12 05:01:38;;;;;;;2.67;1.27;;;;;;;17.01;53.70;100321.56;5101139;28;20487;-63
2022/05/12 05:04:05;;;;;;;2.63;0.73;;;;;;;17.96;51.08;100322.88;5106702;28;20454;-63
2022/05/12 05:06:32;;;;;;;3.80;1.10;;;;;;;18.18;50.10;100326.50;5122035;28;20506;-63
2022/05/12 05:09:01;;;;;;;6.23;1.40;;;;;;;18.63;50.13;100332.66;5122812;28;20482;-63
2022/05/12 05:11:28;;;;;;;4.90;1.50;;;;;;;18.29;48.96;100336.81;5103891;28;20582;-63
2022/05/12 05:13:54;;;;;;;1.93;1.00;;;;;;;18.77;47.82;100344.47;5102677;28;20472;-63
2022/05/12 05:16:22;;;;;;;3.53;1.47;;;;;;;18.48;48.73;100348.09;5105315;28;20486;-63
2022/05/12 05:18:49;;;;;;;3.87;1.40;;;;;;;18.25;49.05;100346.38;5102605;28;20458;-63
2022/05/12 05:21:16;;;;;;;3.60;1.20;;;;;;;19.41;46.49;100343.66;5100518;28;20494;-63
2022/05/12 05:23:43;;;;;;;5.17;1.23;;;;;;;19.16;47.13;100354.06;5101516;28;20507;-63
2022/05/12 05:26:11;;;;;;;8.33;1.50;;;;;;;18.21;49.82;100353.16;5097674;28;21065;-63
2022/05/12 05:28:38;;;;;;;6.70;1.50;;;;;;;19.08;47.97;100357.75;5101520;28;20478;-63
2022/05/12 05:31:05;;;;;;;4.10;1.23;;;;;;;18.48;49.16;100369.75;5101182;28;20475;-62
2022/05/12 05:33:31;;;;;;;4.83;1.83;;;;;;;17.94;50.75;100358.22;5101781;28;20817;-62
2022/05/12 05:35:58;;;;;;;5.30;1.77;;;;;;;17.68;51.65;100377.56;5102150;28;20475;-63
2022/05/12 05:38:25;;;;;;;3.73;1.57;;;;;;;17.35;51.58;100380.56;5102265;28;20451;-63
2022/05/12 05:40:52;;;;;;;4.63;1.23;;;;;;;18.21;49.95;100385.63;5100202;28;20498;-63
2022/05/12 05:43:20;;;;;;;3.60;2.07;;;;;;;18.33;49.83;100392.28;5102393;28;20435;-64
2022/05/12 05:45:47;;;;;;;4.50;1.60;;;;;;;19.89;46.41;100394.50;5102030;28;20469;-64
2022/05/12 05:48:14;;;;;;;4.80;1.70;;;;;;;18.95;47.60;100406.38;5099124;28;20463;-64
2022/05/12 05:53:27;;;;;;;2.23;1.07;;;;;;;18.86;47.76;100405.66;5101928;28;20442;-63
2022/05/12 05:55:56;;;;;;;3.97;1.40;;;;;;;19.15;46.75;100412.84;5100884;28;20474;-64
2022/05/12 05:58:25;;;;;;;3.23;1.80;;;;;;;19.11;47.46;100414.28;5085734;28;20468;-63
2022/05/12 06:00:51;;;;;;;4.30;1.30;;;;;;;18.93;47.80;100427.41;5080724;28;20480;-64
2022/05/12 06:03:18;;;;;;;4.90;1.40;;;;;;;18.62;47.97;100428.44;5081494;28;20948;-63
2022/05/12 06:05:46;;;;;;;8.30;2.50;;;;;;;18.51;48.43;100420.81;5081176;28;20897;-63
2022/05/12 06:08:14;;;;;;;3.57;1.33;;;;;;;18.75;48.27;100425.91;5097381;28;20488;-62
2022/05/12 06:10:41;;;;;;;4.97;1.70;;;;;;;20.16;45.85;100433.53;5099609;28;20509;-62
2022/05/12 06:13:08;;;;;;;5.57;1.30;;;;;;;20.27;44.19;100430.25;5113252;28;20526;-63
2022/05/12 06:15:37;;;;;;;4.73;1.63;;;;;;;20.66;43.08;100434.25;5082869;28;20466;-62
2022/05/12 06:18:07;;;;;;;4.13;2.00;;;;;;;19.69;45.54;100445.88;5094679;28;20485;-62
2022/05/12 06:20:34;;;;;;;4.23;2.17;;;;;;;19.83;45.51;100453.13;5105814;28;20458;-63
2022/05/12 06:23:00;;;;;;;5.10;1.90;;;;;;;21.61;41.42;100447.03;5093650;28;20458;-63
2022/05/12 06:25:27;;;;;;;2.90;1.60;;;;;;;20.80;43.49;100439.75;5089113;28;20472;-63
2022/05/12 06:27:54;;;;;;;5.53;2.23;;;;;;;21.69;42.08;100449.56;5090828;28;20486;-63
2022/05/12 06:30:21;;;;;;;4.97;2.43;;;;;;;18.52;47.17;100460.38;5096878;28;20860;-63
2022/05/12 06:32:51;;;;;;;6.30;1.80;;;;;;;18.89;47.30;100470.28;5099471;28;20451;-63
2022/05/12 06:35:20;;;;;;;5.10;2.00;;;;;;;19.12;47.05;100466.59;5101965;28;20458;-63
2022/05/12 06:37:47;;;;;;;4.63;2.33;;;;;;;18.44;48.15;100474.88;5103677;28;20478;-63
2022/05/12 06:40:14;;;;;;;5.73;2.57;;;;;;;18.26;50.20;100475.22;5111195;28;20501;-63
2022/05/12 06:42:41;;;;;;;3.77;2.20;;;;;;;21.56;41.64;100472.16;5121039;28;20886;-63
2022/05/12 06:45:09;;;;;;;3.70;2.20;;;;;;;20.13;44.50;100474.63;5130017;27;20542;-62
2022/05/12 06:47:36;;;;;;;4.50;1.83;;;;;;;20.30;45.43;100478.72;5108103;28;20487;-63
2022/05/12 06:50:07;;;;;;;4.07;2.07;;;;;;;19.06;47.61;100489.88;5120820;28;20442;-63
2022/05/12 06:52:34;;;;;;;7.27;3.50;;;;;;;17.32;52.84;100499.81;5131061;27;20457;-62
2022/05/12 06:55:01;;;;;;;5.57;2.77;;;;;;;17.67;51.17;100503.81;5125736;27;20511;-63
2022/05/12 06:57:28;;;;;;;8.43;2.77;;;;;;;19.07;47.59;100505.09;5129133;27;20519;-62
2022/05/12 06:59:55;;;;;;;7.23;2.43;;;;;;;20.29;46.05;100492.50;5120162;28;20894;-63
2022/05/12 07:02:22;;;;;;;8.70;3.67;;;;;;;20.55;43.92;100501.84;5118999;28;20502;-63
2022/05/12 07:04:52;;;;;;;4.00;2.30;;;;;;;21.86;41.57;100506.31;5119694;28;20450;-62
2022/05/12 07:07:21;;;;;;;7.70;3.13;;;;;;;21.85;41.75;100505.44;5119321;28;20776;-63
2022/05/12 07:09:50;;;;;;;4.90;2.57;;;;;;;20.85;42.86;100505.19;5118490;28;20485;-63
2022/05/12 07:12:17;;;;;;;4.70;2.90;;;;;;;18.90;48.23;100509.06;5119928;28;20485;-63
2022/05/12 07:14:44;;;;;;;6.90;3.50;;;;;;;18.90;47.26;100519.88;5119426;28;20818;-63
2022/05/12 07:17:10;;;;;;;7.23;2.87;;;;;;;20.64;44.25;100514.25;5099007;28;20826;-63
2022/05/12 07:19:37;;;;;;;4.83;3.30;;;;;;;20.01;45.04;100520.47;5098997;28;20500;-63
2022/05/12 07:27:49;;;;;;;7.67;3.17;;;;;;;21.99;41.67;100520.78;5084469;28;20465;-63
2022/05/12 07:30:16;;;;;;;5.77;2.60;;;;;;;23.75;37.85;100534.50;5121394;28;20457;-63
2022/05/12 07:32:43;;;;;;;3.20;2.43;;;;;;;23.08;38.42;100534.84;5131583;28;20454;-63
2022/05/12 07:35:09;;;;;;;8.57;2.60;;;;;;;23.18;38.45;100534.41;5107549;28;20451;-63
2022/05/12 07:37:37;;;;;;;6.10;2.30;;;;;;;23.45;37.29;100536.97;5121039;28;20438;-63
2022/05/12 07:40:07;;;;;;;5.70;3.03;;;;;;;21.66;40.76;100531.59;5114760;28;20517;-63
2022/05/12 07:42:33;;;;;;;5.03;2.77;;;;;;;20.24;43.81;100543.81;5119418;28;20471;-63
2022/05/12 07:45:00;;;;;;;5.90;2.90;;;;;;;22.03;40.81;100540.25;5119316;28;20884;-63
2022/05/12 07:47:27;;;;;;;4.90;2.60;;;;;;;21.56;41.46;100544.75;5107951;28;21172;-63
2022/05/12 07:49:54;;;;;;;4.20;1.77;;;;;;;24.61;36.70;100541.13;5100199;28;20486;-63
2022/05/12 07:52:21;;;;;;;4.87;2.40;;;;;;;23.38;36.25;100542.47;5102589;28;20470;-63
2022/05/12 07:54:48;;;;;;;3.27;2.17;;;;;;;22.41;38.32;100539.63;5103212;28;20524;-63
2022/05/12 07:57:16;;;;;;;4.70;2.43;;;;;;;24.09;36.52;100551.47;5103153;28;20481;-64
2022/05/12 07:59:44;;;;;;;6.93;2.80;;;;;;;22.54;38.78;100557.84;5120549;28;20445;-63
2022/05/12 08:02:15;;;;;;;3.30;2.00;;;;;;;22.19;39.54;100555.31;5125667;27;20465;-63
2022/05/12 08:04:42;;;;;;;4.50;2.70;;;;;;;23.83;36.87;100560.72;5118871;28;20481;-63
2022/05/12 08:07:08;;;;;;;4.67;2.07;;;;;;;25.03;34.73;100556.03;5108667;28;20519;-63
2022/05/12 08:09:35;;;;;;;4.97;1.90;;;;;;;23.76;35.73;100562.63;5136318;27;20485;-63
2022/05/12 08:12:02;;;;;;;6.60;2.33;;;;;;;24.43;34.52;100563.78;5127519;27;20500;-64
2022/05/12 08:14:30;;;;;;;5.00;2.10;;;;;;;25.66;33.34;100566.63;5122111;28;20516;-64
2022/05/12 08:16:56;;;;;;;5.97;2.37;;;;;;;23.99;34.63;100570.25;5122666;28;20474;-63
2022/05/12 08:19:24;;;;;;;6.47;2.07;;;;;;;23.09;36.53;100571.16;5105624;28;20510;-64
2022/05/12 08:21:51;;;;;;;3.23;1.93;;;;;;;23.12;35.47;100573.44;5102324;28;20620;-63
2022/05/12 08:24:18;;;;;;;3.50;1.90;;;;;;;23.94;34.80;100576.41;5113289;27;20457;-64
2022/05/12 08:26:47;;;;;;;5.23;2.10;;;;;;;25.15;33.85;100567.88;5104419;28;20475;-63
2022/05/12 08:29:14;;;;;;;3.73;1.63;;;;;;;25.85;32.27;100572.88;5102915;28;20474;-64
2022/05/12 08:31:42;;;;;;;7.50;2.77;;;;;;;24.16;33.96;100576.00;5101899;28;20508;-63
2022/05/12 08:34:08;;;;;;;4.63;2.30;;;;;;;24.09;36.02;100575.22;5117796;28;20450;-64
2022/05/12 08:36:36;;;;;;;4.60;2.07;;;;;;;24.37;34.77;100581.09;5122823;28;20539;-64
2022/05/12 08:39:02;;;;;;;2.77;2.33;;;;;;;22.34;37.03;100577.78;5121721;28;20568;-61
2022/05/12 08:41:37;;;;;;;6.60;2.70;;;;;;;22.55;36.74;100571.25;5119491;28;20554;-63
2022/05/12 08:44:08;;;;;;;4.07;2.23;;;;;;;23.41;36.37;100577.50;5102463;28;20446;-63
2022/05/12 08:46:43;;;;;;;4.93;2.90;;;;;;;22.72;36.35;100582.56;5104450;28;20482;-63
2022/05/12 08:49:21;;;;;;;5.80;3.00;;;;;;;23.04;36.16;100581.84;5122751;28;20499;-63
2022/05/12 08:51:49;;;;;;;6.10;2.70;;;;;;;22.94;37.58;100572.19;5122286;28;20481;-63
2022/05/12 08:54:19;;;;;;;5.53;3.00;;;;;;;22.55;38.25;100579.44;5115431;28;20475;-63
2022/05/12 08:56:46;;;;;;;6.67;3.77;;;;;;;22.73;38.30;100578.75;5121987;28;20474;-63
2022/05/12 08:59:14;;;;;;;6.53;3.40;;;;;;;24.46;35.52;100572.59;5121769;28;20465;-63
2022/05/12 09:01:54;;;;;;;5.70;2.93;;;;;;;24.28;33.99;100573.41;5120873;28;20495;-63
2022/05/12 09:04:36;;;;;;;6.43;3.10;;;;;;;23.99;34.61;100587.50;5122321;28;20442;-63
2022/05/12 09:07:08;;;;;;;5.83;2.40;;;;;;;26.84;30.92;100583.25;5113087;28;20481;-63
2022/05/12 09:09:41;;;;;;;5.20;3.33;;;;;;;23.94;34.07;100591.91;5110797;28;20493;-62
2022/05/12 09:12:15;;;;;;;4.80;2.70;;;;;;;23.69;33.69;100588.06;5121828;28;20470;-62
2022/05/12 09:14:49;;;;;;;4.00;2.60;;;;;;;24.51;33.31;100587.28;5122021;28;20536;-62
2022/05/12 09:17:20;;;;;;;4.00;3.00;;;;;;;22.97;35.86;100581.00;5121752;28;20478;-63
2022/05/12 09:19:47;;;;;;;5.73;2.80;;;;;;;24.03;34.68;100601.53;5121301;28;20503;-63
2022/05/12 09:22:14;;;;;;;3.50;2.63;;;;;;;23.07;35.40;100590.47;5122123;28;20462;-63
2022/05/12 09:24:41;;;;;;;4.67;3.37;;;;;;;24.87;32.71;100599.34;5121480;28;20601;-63
2022/05/12 09:27:09;;;;;;;4.77;3.10;;;;;;;23.49;35.06;100592.81;5120810;28;20473;-62
2022/05/12 09:29:46;;;;;;;6.77;3.30;;;;;;;24.85;33.65;100589.72;5121959;28;20478;-63
2022/05/12 09:32:22;;;;;;;4.90;3.13;;;;;;;22.88;35.80;100583.97;5107195;28;20510;-63
2022/05/12 09:35:20;;;;;;;4.30;2.60;;;;;;;23.77;34.97;100589.69;5102010;28;20458;-63
2022/05/12 09:37:47;;;;;;;4.40;3.20;;;;;;;23.55;34.00;100591.09;5100798;28;20440;-63
2022/05/12 09:40:35;;;;;;;4.17;2.90;;;;;;;23.39;34.78;100587.81;5112778;27;20477;-63
2022/05/12 09:43:10;;;;;;;7.87;3.83;;;;;;;24.75;32.64;100582.84;5122786;28;20496;-62
2022/05/12 09:45:37;;;;;;;5.80;3.10;;;;;;;25.19;32.48;100586.38;5135580;27;20469;-62
2022/05/12 09:48:27;;;;;;;5.37;2.80;;;;;;;25.10;33.24;100578.69;5120488;28;20438;-62
2022/05/12 09:50:54;;;;;;;6.03;3.57;;;;;;;21.96;37.22;100583.78;5116328;27;20509;-62
2022/05/12 09:53:26;;;;;;;6.70;3.37;;;;;;;20.51;41.72;100591.88;5120804;28;20578;-63
2022/05/12 09:56:05;;;;;;;4.63;3.20;;;;;;;22.03;38.25;100594.69;5119874;28;20482;-62
2022/05/12 09:58:36;;;;;;;4.20;3.17;;;;;;;23.42;34.83;100594.75;5121242;28;20418;-62
2022/05/12 10:01:22;;;;;;;5.57;3.17;;;;;;;23.37;35.63;100594.53;5120769;27;20500;-62
2022/05/12 10:09:23;;;;;;;4.10;3.10;;;;;;;24.85;31.81;100589.72;5133982;27;20476;-62
2022/05/12 10:11:54;;;;;;;5.00;2.80;;;;;;;22.04;36.87;100585.47;5141779;27;20469;-62
2022/05/12 10:14:31;;;;;;;5.77;2.60;;;;;;;21.76;39.17;100588.34;5142203;27;20530;-62
2022/05/12 10:16:59;;;;;;;5.87;3.00;;;;;;;20.38;40.40;100594.50;5111779;27;20502;-62
2022/05/12 10:19:30;;;;;;;6.13;2.60;;;;;;;21.48;37.66;100583.06;5100687;28;20817;-62
2022/05/12 10:22:09;;;;;;;2.60;2.07;;;;;;;24.92;33.89;100590.47;5099760;28;20466;-62
2022/05/12 10:24:46;;;;;;;6.47;2.30;;;;;;;24.06;34.44;100582.81;5100347;28;20481;-62
2022/05/12 10:27:17;;;;;;;5.20;2.03;;;;;;;24.58;31.71;100579.03;5107788;28;20458;-62
2022/05/12 10:29:51;;;;;;;6.73;2.50;;;;;;;25.72;30.22;100573.88;5119877;28;20482;-62
2022/05/12 10:32:22;;;;;;;4.63;1.80;;;;;;;25.54;29.82;100576.69;5120671;28;20466;-63
2022/05/12 10:34:57;;;;;;;3.20;1.83;;;;;;;25.89;30.10;100567.75;5120679;28;20449;-63
2022/05/12 10:37:38;;;;;;;2.53;2.07;;;;;;;23.42;32.70;100572.91;5120255;28;20497;-62
2022/05/12 10:40:16;;;;;;;4.17;2.67;;;;;;;23.38;34.13;100577.09;5119002;28;20474;-63
2022/05/12 10:42:49;;;;;;;6.37;2.40;;;;;;;23.67;32.99;100568.34;5121343;28;20461;-63
2022/05/12 10:45:24;;;;;;;4.13;2.80;;;;;;;24.34;32.94;100567.03;5105598;28;20442;-63
2022/05/12 10:48:02;;;;;;;5.67;2.47;;;;;;;22.52;34.95;100565.38;5119136;28;20507;-63
2022/05/12 10:50:32;;;;;;;3.90;2.27;;;;;;;23.39;35.09;100576.06;5120277;28;20473;-63
2022/05/12 10:53:08;;;;;;;3.30;2.50;;;;;;;24.21;32.17;100570.72;5120234;28;20943;-62
2022/05/12 10:55:40;;;;;;;3.37;2.13;;;;;;;23.47;33.64;100578.53;5119097;27;20473;-62
2022/05/12 10:58:21;;;;;;;2.70;2.00;;;;;;;22.41;35.80;100577.78;5120665;28;20474;-62
2022/05/12 11:01:06;;;;;;;5.47;3.17;;;;;;;21.02;38.53;100574.47;5119459;27;20498;-62
2022/05/12 11:03:36;;;;;;;5.53;2.87;;;;;;;20.38;39.65;100578.22;5119474;28;20475;-62
2022/05/12 11:06:06;;;;;;;4.50;3.10;;;;;;;20.96;38.94;100572.53;5120423;28;20537;-62
2022/05/12 11:08:36;;;;;;;5.73;2.20;;;;;;;21.00;41.87;100572.97;5119349;28;20450;-62
2022/05/12 11:11:05;;;;;;;3.93;2.97;;;;;;;22.67;36.71;100579.63;5118850;27;20486;-62
2022/05/12 11:13:38;;;;;;;4.33;3.07;;;;;;;22.80;35.07;100578.75;5119501;28;20510;-62
2022/05/12 11:16:07;;;;;;;4.63;2.50;;;;;;;23.35;34.29;100577.53;5119811;28;20577;-62
2022/05/12 11:18:38;;;;;;;4.07;2.33;;;;;;;24.43;32.22;100563.78;5121134;28;20423;-62
2022/05/12 11:21:13;;;;;;;3.10;1.97;;;;;;;22.89;34.84;100569.28;5120524;28;21041;-62
2022/05/12 11:23:51;;;;;;;4.93;2.27;;;;;;;21.34;36.68;100563.09;5115407;28;20450;-62
2022/05/12 11:26:29;;;;;;;3.70;2.37;;;;;;;20.59;39.62;100574.59;5114831;28;20588;-62
2022/05/12 11:31:46;;;;;;;4.00;2.37;;;;;;;20.77;39.24;100582.25;5123862;27;20477;-62
2022/05/12 11:34:16;;;;;;;6.10;2.70;;;;;;;20.21;40.90;100577.66;5116317;28;20450;-62
2022/05/12 11:36:47;;;;;;;7.13;3.00;;;;;;;19.64;41.86;100567.69;5123491;27;20498;-61
2022/05/12 11:39:30;;;;;;;4.50;2.50;;;;;;;19.64;42.80;100576.66;5123479;28;20485;-63
2022/05/12 11:42:12;;;;;;;5.87;2.50;;;;;;;20.39;41.14;100573.63;5123297;27;20539;-62
2022/05/12 11:44:45;;;;;;;5.80;2.90;;;;;;;21.44;39.58;100556.22;5119830;28;20478;-62
2022/05/12 11:47:43;;;;;;;4.90;2.67;;;;;;;21.79;37.73;100569.72;5121382;28;20492;-63
2022/05/12 11:50:24;;;;;;;5.73;2.97;;;;;;;23.70;34.07;100561.63;5123821;27;20484;-63
2022/05/12 11:53:02;;;;;;;3.93;2.33;;;;;;;21.63;37.09;100556.53;5122362;28;20464;-62
2022/05/12 11:55:30;;;;;;;3.20;2.50;;;;;;;22.08;37.07;100556.78;5120422;28;20491;-63